Time;durP1;ratioP1;P1;durP2;ratioP2;P2;SDS_P1;SDS_P2;PMS_P1;PMS_P2;Temp;Humidity;BMP_temperature;BMP_pressure;BME280_temperature;BME280_humidity;BME280_pressure;Samples;Min_cycle;Max_cycle;Signal;HPM_P1;HPM_P2
2023/03/23 00:01:26;;;;;;;10.85;5.38;;;10.40;99.90;;;;;;5054719;28;20032;-86
2023/03/23 00:03:56;;;;;;;11.60;5.50;;;10.40;99.90;;;;;;5055341;28;20037;-86
2023/03/23 00:06:23;;;;;;;13.95;7.78;;;10.40;99.90;;;;;;5055217;28;20062;-86
2023/03/23 00:08:56;;;;;;;14.63;7.30;;;10.50;99.90;;;;;;5071980;28;20041;-85
2023/03/23 00:11:23;;;;;;;14.80;7.57;;;10.60;99.90;;;;;;5071988;28;20044;-85
2023/03/23 00:13:51;;;;;;;18.75;9.32;;;10.70;99.90;;;;;;5071745;28;20385;-84
2023/03/23 00:16:18;;;;;;;14.23;9.07;;;10.70;99.90;;;;;;5072104;28;20392;-85
2023/03/23 00:18:52;;;;;;;16.35;10.57;;;10.90;99.90;;;;;;5071904;28;20041;-84
2023/03/23 00:21:18;;;;;;;17.67;11.25;;;10.80;99.90;;;;;;5072976;28;20036;-84
2023/03/23 00:23:44;;;;;;;14.80;8.80;;;10.80;99.90;;;;;;5072179;28;20076;-84
2023/03/23 00:26:11;;;;;;;22.08;11.07;;;10.80;99.90;;;;;;5055414;28;20071;-84
2023/03/23 00:28:38;;;;;;;20.13;10.10;;;10.70;99.90;;;;;;5055395;28;20048;-84
2023/03/23 00:31:06;;;;;;;18.10;10.57;;;10.70;99.90;;;;;;5071876;28;20049;-84
2023/03/23 00:33:38;;;;;;;24.13;11.57;;;10.60;99.90;;;;;;5071726;28;20040;-85
2023/03/23 00:36:05;;;;;;;21.35;11.35;;;10.60;99.90;;;;;;5071907;28;20040;-85
2023/03/23 00:38:31;;;;;;;22.95;11.52;;;10.60;99.90;;;;;;5054775;28;20115;-85
2023/03/23 00:40:57;;;;;;;23.63;11.88;;;10.60;99.90;;;;;;5055071;28;20055;-86
2023/03/23 00:43:25;;;;;;;21.02;11.15;;;10.60;99.90;;;;;;5037885;28;20174;-85
2023/03/23 00:45:54;;;;;;;18.70;10.45;;;10.60;99.90;;;;;;5071146;28;20086;-85
2023/03/23 00:48:21;;;;;;;15.57;8.48;;;10.70;99.90;;;;;;5054780;28;20051;-85
2023/03/23 00:50:47;;;;;;;17.45;8.15;;;10.80;99.90;;;;;;5054924;28;20484;-84
2023/03/23 00:53:13;;;;;;;15.68;7.03;;;10.90;99.90;;;;;;5054833;28;20449;-84
2023/03/23 00:55:42;;;;;;;10.82;6.63;;;11.00;99.90;;;;;;5071717;28;20055;-84
2023/03/23 00:58:08;;;;;;;10.75;5.85;;;11.00;99.90;;;;;;5072252;28;20037;-83
2023/03/23 01:00:33;;;;;;;5.03;3.22;;;11.00;99.90;;;;;;5072004;28;20041;-83
2023/03/23 01:02:59;;;;;;;3.92;2.40;;;10.90;99.90;;;;;;5055309;28;20400;-83
2023/03/23 01:05:31;;;;;;;5.25;2.28;;;10.70;99.90;;;;;;5055201;28;20032;-84
2023/03/23 01:08:01;;;;;;;6.43;3.00;;;10.40;99.90;;;;;;5071881;28;20404;-84
2023/03/23 01:10:27;;;;;;;3.70;2.75;;;10.30;99.90;;;;;;5055297;28;20072;-84
2023/03/23 01:12:54;;;;;;;6.00;3.42;;;10.30;99.90;;;;;;5072373;28;20037;-85
2023/03/23 01:15:20;;;;;;;;;;;10.30;99.90;;;;;;5072479;28;20906;-85
2023/03/23 01:17:46;;;;;;;4.20;2.95;;;10.20;99.90;;;;;;5071892;28;19916;-85
2023/03/23 01:20:14;;;;;;;4.40;2.67;;;10.30;99.90;;;;;;5054928;28;20037;-85
2023/03/23 01:22:41;;;;;;;4.43;2.65;;;10.30;99.90;;;;;;5071518;28;20032;-85
2023/03/23 01:25:09;;;;;;;5.38;3.28;;;10.40;99.90;;;;;;5055654;28;20040;-85
2023/03/23 01:27:35;;;;;;;5.50;3.33;;;10.30;99.90;;;;;;5071638;28;20037;-86
2023/03/23 01:30:01;;;;;;;5.63;3.40;;;10.40;99.90;;;;;;5058278;28;20139;-86
2023/03/23 01:32:26;;;;;;;6.05;3.35;;;10.30;99.90;;;;;;5055829;28;20101;-86
2023/03/23 01:34:52;;;;;;;7.55;3.20;;;10.30;99.90;;;;;;5058532;28;20056;-86
2023/03/23 01:37:19;;;;;;;8.45;4.15;;;10.30;99.90;;;;;;5074649;28;20039;-87
2023/03/23 01:39:45;;;;;;;7.68;3.65;;;10.30;99.90;;;;;;5022197;28;20033;-86
2023/03/23 01:42:11;;;;;;;8.05;4.95;;;10.40;99.90;;;;;;5056408;28;20037;-86
2023/03/23 01:44:37;;;;;;;8.35;5.32;;;10.50;99.90;;;;;;5058322;28;20037;-86
2023/03/23 01:47:03;;;;;;;8.80;4.53;;;10.50;99.90;;;;;;5074104;28;20109;-87
2023/03/23 01:49:37;;;;;;;8.15;4.65;;;10.50;99.90;;;;;;5057417;28;20048;-87
2023/03/23 01:52:17;;;;;;;10.27;5.95;;;10.60;99.90;;;;;;5073046;28;20048;-87
2023/03/23 01:54:44;;;;;;;7.10;4.60;;;10.70;99.90;;;;;;5072130;28;20166;-87
2023/03/23 01:57:16;;;;;;;14.88;5.95;;;10.70;99.90;;;;;;5074851;28;20218;-87
2023/03/23 01:59:45;;;;;;;9.20;4.75;;;10.80;99.90;;;;;;5074654;28;20043;-87
2023/03/23 02:02:12;;;;;;;9.93;4.38;;;10.70;99.90;;;;;;5074641;28;20033;-87
2023/03/23 02:04:39;;;;;;;9.95;4.88;;;10.80;99.90;;;;;;5075023;28;20044;-88
2023/03/23 02:07:05;;;;;;;8.98;4.70;;;10.80;99.90;;;;;;5074743;28;20048;-88
2023/03/23 02:09:31;;;;;;;8.50;4.68;;;10.80;99.90;;;;;;5074680;28;20567;-87
2023/03/23 02:11:57;;;;;;;7.15;4.30;;;10.80;99.90;;;;;;5074582;28;20043;-87
2023/03/23 02:14:25;;;;;;;10.98;4.47;;;10.80;99.90;;;;;;5040885;28;20489;-88
2023/03/23 02:16:57;;;;;;;6.82;3.40;;;10.80;99.90;;;;;;5074480;28;20097;-88
2023/03/23 02:19:57;;;;;;;9.10;4.65;;;10.80;99.90;;;;;;5074324;28;20102;-88
2023/03/23 02:22:43;;;;;;;8.73;4.28;;;10.80;99.90;;;;;;5074123;28;20036;-87
2023/03/23 02:25:45;;;;;;;7.43;4.00;;;10.80;99.90;;;;;;5067421;28;20091;-87
2023/03/23 02:28:51;;;;;;;11.07;4.18;;;10.80;99.90;;;;;;5071951;28;20044;-88
2023/03/23 02:31:53;;;;;;;10.15;4.10;;;10.80;99.90;;;;;;5072259;28;20119;-88
2023/03/23 02:34:28;;;;;;;6.40;3.67;;;10.90;99.90;;;;;;5072860;28;20037;-87
2023/03/23 02:37:03;;;;;;;7.60;3.70;;;10.90;99.90;;;;;;5071614;28;20033;-88
2023/03/23 02:39:40;;;;;;;6.47;3.25;;;10.90;99.90;;;;;;5074267;28;20075;-88
2023/03/23 02:42:10;;;;;;;8.32;3.85;;;10.80;99.90;;;;;;5073694;28;20036;-88
2023/03/23 02:44:43;;;;;;;8.07;3.40;;;10.80;99.90;;;;;;5074509;28;20101;-87
2023/03/23 02:47:14;;;;;;;10.73;3.70;;;10.90;99.90;;;;;;5055519;28;20056;-88
2023/03/23 02:49:42;;;;;;;9.55;3.00;;;10.90;99.90;;;;;;5074914;28;20048;-88
2023/03/23 02:52:14;;;;;;;10.57;4.30;;;10.90;99.90;;;;;;5074065;28;20044;-88
2023/03/23 02:54:42;;;;;;;7.43;3.55;;;10.80;99.90;;;;;;5074178;28;20041;-88
2023/03/23 02:57:09;;;;;;;12.00;4.25;;;10.80;99.90;;;;;;5073645;28;20032;-88
2023/03/23 02:59:35;;;;;;;8.05;3.35;;;10.80;99.90;;;;;;5056701;28;20484;-89
2023/03/23 03:02:09;;;;;;;4.65;2.80;;;10.80;99.90;;;;;;5071590;28;20138;-88
2023/03/23 03:04:39;;;;;;;6.72;3.20;;;10.80;99.90;;;;;;5056900;28;20041;-88
2023/03/23 03:07:35;;;;;;;6.47;3.38;;;10.80;99.90;;;;;;5073968;28;20037;-88
2023/03/23 03:10:11;;;;;;;6.68;3.10;;;10.80;99.90;;;;;;5056911;28;20507;-88
2023/03/23 03:12:51;;;;;;;6.32;3.58;;;10.90;99.90;;;;;;5072032;28;20047;-88
2023/03/23 03:15:47;;;;;;;7.35;3.22;;;11.00;99.90;;;;;;5056485;28;20032;-89
2023/03/23 03:18:22;;;;;;;5.68;2.58;;;11.00;99.90;;;;;;5071517;28;20040;-88
2023/03/23 03:20:53;;;;;;;4.88;2.60;;;10.90;99.90;;;;;;5074513;28;20539;-88
2023/03/23 03:23:21;;;;;;;6.85;2.85;;;10.90;99.90;;;;;;5074434;28;20044;-89
2023/03/23 03:25:48;;;;;;;9.52;3.28;;;10.80;99.90;;;;;;5074340;28;20051;-89
2023/03/23 03:28:21;;;;;;;5.78;2.83;;;10.80;99.90;;;;;;5057812;28;20040;-89
2023/03/23 03:30:57;;;;;;;5.53;2.40;;;10.80;99.90;;;;;;5073670;28;20102;-89
2023/03/23 03:33:27;;;;;;;7.75;2.60;;;10.80;99.90;;;;;;5073413;28;20049;-85
2023/03/23 03:35:59;;;;;;;6.53;2.80;;;10.80;99.90;;;;;;5056398;28;20032;-86
2023/03/23 03:38:26;;;;;;;4.07;2.45;;;10.90;99.90;;;;;;5056422;28;20457;-87
2023/03/23 03:40:52;;;;;;;5.53;2.22;;;10.80;99.90;;;;;;5057069;28;20033;-87
2023/03/23 03:43:18;;;;;;;;;;;10.80;99.90;;;;;;5073949;28;20484;-87
2023/03/23 03:45:44;;;;;;;5.30;2.03;;;10.90;99.90;;;;;;5073426;28;19922;-87
2023/03/23 03:48:10;;;;;;;3.85;2.40;;;10.80;99.90;;;;;;5073689;28;20052;-88
2023/03/23 03:50:36;;;;;;;;;;;10.80;99.90;;;;;;5057133;28;20044;-87
2023/03/23 03:53:02;;;;;;;5.78;2.33;;;10.80;99.90;;;;;;5073081;28;19965;-86
2023/03/23 03:55:28;;;;;;;;;;;10.90;99.90;;;;;;5073508;28;20024;-81
2023/03/23 03:57:55;;;;;;;5.75;2.75;;;10.90;99.90;;;;;;5071841;28;19916;-81
2023/03/23 04:00:22;;;;;;;6.75;2.85;;;10.90;99.90;;;;;;5072846;28;20037;-81
2023/03/23 04:02:53;;;;;;;7.00;2.42;;;10.80;99.90;;;;;;5072313;28;20036;-80
2023/03/23 04:05:20;;;;;;;4.88;2.55;;;10.70;99.90;;;;;;5072682;28;20376;-81
2023/03/23 04:07:49;;;;;;;;;;;10.60;99.90;;;;;;5073066;28;20374;-81
2023/03/23 04:10:15;;;;;;;4.22;2.38;;;10.70;99.90;;;;;;5072726;28;19955;-81
2023/03/23 04:12:40;;;;;;;4.22;1.67;;;10.70;99.90;;;;;;5072523;28;20067;-81
2023/03/23 04:15:07;;;;;;;5.53;1.92;;;10.50;99.90;;;;;;5054863;28;20111;-81
2023/03/23 04:17:33;;;;;;;;;;;10.30;99.90;;;;;;5071527;28;20036;-81
2023/03/23 04:19:59;;;;;;;2.17;0.82;;;10.20;99.90;;;;;;5054756;28;19924;-80
2023/03/23 04:22:29;;;;;;;2.72;1.08;;;10.10;99.90;;;;;;5070397;28;20083;-81
2023/03/23 04:25:00;;;;;;;3.30;1.35;;;9.80;99.90;;;;;;5054632;28;20036;-82
2023/03/23 04:27:27;;;;;;;1.92;1.02;;;9.70;99.90;;;;;;5071564;28;20044;-83
2023/03/23 04:29:56;;;;;;;2.90;0.93;;;9.60;99.90;;;;;;5070901;28;20185;-83
2023/03/23 04:32:21;;;;;;;4.65;1.15;;;9.60;99.90;;;;;;5037737;28;20040;-83
2023/03/23 04:34:48;;;;;;;1.98;0.80;;;9.60;99.90;;;;;;5071297;28;20036;-82
2023/03/23 04:37:14;;;;;;;2.47;0.93;;;9.50;99.90;;;;;;5054610;28;20036;-83
2023/03/23 04:39:41;;;;;;;6.38;1.50;;;9.50;99.90;;;;;;5037822;28;20097;-83
2023/03/23 04:42:07;;;;;;;6.53;2.17;;;9.50;99.90;;;;;;5071219;28;20480;-83
2023/03/23 04:44:32;;;;;;;5.00;1.27;;;9.60;99.90;;;;;;5053916;28;20044;-83
2023/03/23 04:47:01;;;;;;;2.55;1.10;;;9.70;99.90;;;;;;5053921;28;20117;-82
2023/03/23 04:49:27;;;;;;;5.63;1.35;;;9.70;99.90;;;;;;5036863;28;20067;-82
2023/03/23 04:51:53;;;;;;;3.65;1.33;;;9.70;99.90;;;;;;5070934;28;20542;-83
2023/03/23 04:54:18;;;;;;;4.70;1.20;;;9.70;99.90;;;;;;5054366;28;20048;-83
2023/03/23 04:56:44;;;;;;;4.83;1.37;;;9.70;99.90;;;;;;5054436;28;20366;-83
2023/03/23 04:59:10;;;;;;;4.78;1.17;;;9.60;99.90;;;;;;5071768;28;20619;-83
2023/03/23 05:01:38;;;;;;;3.28;1.60;;;9.70;99.90;;;;;;5054306;28;20075;-83
2023/03/23 05:04:04;;;;;;;3.55;1.40;;;9.70;99.90;;;;;;5057018;28;20045;-83
2023/03/23 05:06:29;;;;;;;5.68;2.00;;;9.70;99.90;;;;;;5040120;28;20045;-83
2023/03/23 05:08:55;;;;;;;7.65;1.73;;;9.60;99.90;;;;;;5058141;28;20397;-83
2023/03/23 05:11:21;;;;;;;5.65;1.98;;;9.70;99.90;;;;;;5042242;28;20412;-83
2023/03/23 05:13:46;;;;;;;11.32;2.38;;;9.70;99.90;;;;;;5074249;28;20123;-84
2023/03/23 05:16:31;;;;;;;7.70;2.23;;;9.80;99.90;;;;;;5042327;28;20045;-85
2023/03/23 05:18:57;;;;;;;4.70;2.03;;;9.90;99.90;;;;;;5056156;28;20283;-82
2023/03/23 05:21:23;;;;;;;10.40;2.85;;;10.00;99.90;;;;;;5108912;27;20044;-82
2023/03/23 05:23:54;;;;;;;9.25;2.45;;;10.10;99.90;;;;;;5073710;28;20036;-83
2023/03/23 05:26:21;;;;;;;5.88;2.03;;;10.10;99.90;;;;;;5072991;28;20040;-83
2023/03/23 05:28:48;;;;;;;6.35;2.28;;;10.00;99.90;;;;;;5054132;28;20043;-85
2023/03/23 05:31:14;;;;;;;11.00;2.72;;;10.10;99.90;;;;;;5071464;28;20044;-84
2023/03/23 05:33:39;;;;;;;12.15;2.40;;;10.00;99.90;;;;;;5054048;28;20458;-84
2023/03/23 05:36:10;;;;;;;10.85;3.00;;;10.00;99.90;;;;;;5057625;28;20032;-84
2023/03/23 05:38:38;;;;;;;11.00;3.58;;;10.00;99.90;;;;;;5072147;28;20051;-84
2023/03/23 05:41:04;;;;;;;10.82;2.35;;;10.00;99.90;;;;;;5039841;28;20037;-84
2023/03/23 05:43:30;;;;;;;7.93;2.28;;;10.00;99.90;;;;;;5073968;28;20416;-83
2023/03/23 05:45:57;;;;;;;11.90;2.45;;;9.90;99.90;;;;;;5042349;28;20040;-84
2023/03/23 05:48:22;;;;;;;13.35;2.15;;;9.90;99.90;;;;;;5057620;28;20480;-84
2023/03/23 05:50:48;;;;;;;9.38;1.70;;;9.90;99.90;;;;;;5055276;28;20040;-84
2023/03/23 05:53:14;;;;;;;8.82;2.03;;;9.90;99.90;;;;;;5040779;28;20035;-84
2023/03/23 05:55:39;;;;;;;10.55;2.35;;;9.90;99.90;;;;;;5073694;28;20396;-81
2023/03/23 05:58:05;;;;;;;9.93;1.75;;;9.80;99.90;;;;;;5073495;28;20037;-82
2023/03/23 06:00:32;;;;;;;10.77;2.30;;;9.80;99.90;;;;;;5055336;28;20040;-82
2023/03/23 06:02:58;;;;;;;10.98;1.85;;;9.80;99.90;;;;;;5072861;28;20306;-82
2023/03/23 06:05:25;;;;;;;9.25;2.15;;;9.90;99.90;;;;;;5072850;28;20082;-82
2023/03/23 06:07:52;;;;;;;7.70;2.00;;;9.80;99.90;;;;;;5056059;28;20044;-82
2023/03/23 06:10:17;;;;;;;16.02;2.38;;;9.90;99.90;;;;;;5073233;28;20492;-81
2023/03/23 06:12:44;;;;;;;13.50;2.65;;;9.80;99.90;;;;;;5038823;28;20039;-82
2023/03/23 06:15:10;;;;;;;14.75;2.38;;;9.80;99.90;;;;;;5037789;28;20076;-82
2023/03/23 06:17:37;;;;;;;13.48;2.42;;;9.90;99.90;;;;;;5055524;28;20429;-82
2023/03/23 06:20:09;;;;;;;18.55;2.83;;;9.90;99.90;;;;;;5072651;28;20036;-82
2023/03/23 06:22:37;;;;;;;12.00;1.85;;;10.00;99.90;;;;;;5052948;28;20032;-83
2023/03/23 06:25:05;;;;;;;9.63;2.47;;;10.10;99.90;;;;;;5055835;28;20036;-82
2023/03/23 06:27:30;;;;;;;16.25;2.40;;;10.10;99.90;;;;;;5072077;28;20044;-82
2023/03/23 06:29:56;;;;;;;15.27;3.05;;;10.00;99.90;;;;;;5056243;28;20036;-83
2023/03/23 06:32:24;;;;;;;12.00;2.03;;;10.00;99.90;;;;;;5072930;28;20055;-83
2023/03/23 06:34:49;;;;;;;10.98;1.58;;;10.00;99.90;;;;;;5072210;28;20051;-83
2023/03/23 06:37:15;;;;;;;13.90;1.87;;;10.10;99.90;;;;;;5073137;28;20044;-83
2023/03/23 06:39:41;;;;;;;10.88;2.05;;;10.10;99.90;;;;;;5044064;28;20298;-81
2023/03/23 06:42:11;;;;;;;5.95;2.33;;;10.00;99.90;;;;;;5076761;28;20060;-81
2023/03/23 06:44:38;;;;;;;10.25;1.40;;;9.90;99.90;;;;;;5043444;28;20508;-82
2023/03/23 06:47:07;;;;;;;13.52;1.77;;;9.80;99.90;;;;;;5075129;28;20056;-82
2023/03/23 06:49:33;;;;;;;10.70;1.90;;;9.70;99.90;;;;;;5072395;28;20123;-82
2023/03/23 06:52:01;;;;;;;18.15;2.13;;;9.60;99.90;;;;;;5072642;28;20381;-81
2023/03/23 06:54:27;;;;;;;5.18;1.60;;;9.60;99.90;;;;;;5056085;28;20047;-81
2023/03/23 06:56:53;;;;;;;5.05;1.10;;;9.50;99.90;;;;;;5069636;28;20488;-81
2023/03/23 06:59:19;;;;;;;10.13;1.55;;;9.50;99.90;;;;;;5071843;28;20047;-80
2023/03/23 07:01:46;;;;;;;7.35;1.40;;;9.40;99.90;;;;;;5071534;28;20035;-81
2023/03/23 07:04:13;;;;;;;8.82;1.50;;;9.40;99.90;;;;;;5071797;28;20560;-80
2023/03/23 07:06:38;;;;;;;9.88;1.88;;;9.30;99.90;;;;;;5071453;28;20040;-80
2023/03/23 07:09:04;;;;;;;8.30;1.77;;;9.30;99.90;;;;;;5071700;28;20101;-80
2023/03/23 07:11:30;;;;;;;9.38;1.67;;;9.30;99.90;;;;;;5071922;28;20643;-80
2023/03/23 07:13:56;;;;;;;8.53;1.87;;;9.40;99.90;;;;;;5055334;28;20074;-81
2023/03/23 07:16:21;;;;;;;13.05;2.08;;;9.40;99.90;;;;;;5071991;28;20358;-81
2023/03/23 07:18:47;;;;;;;11.60;1.88;;;9.40;99.90;;;;;;5038699;28;20041;-81
2023/03/23 07:21:13;;;;;;;10.68;2.05;;;9.50;99.90;;;;;;5054835;28;20036;-80
2023/03/23 07:23:39;;;;;;;15.60;3.22;;;9.60;99.90;;;;;;5071148;28;20075;-80
2023/03/23 07:26:05;;;;;;;8.95;1.83;;;9.70;99.90;;;;;;5054207;28;20485;-80
2023/03/23 07:28:31;;;;;;;;;;;9.90;99.90;;;;;;5045285;28;20492;-81
2023/03/23 07:30:56;;;;;;;16.88;3.03;;;10.10;99.90;;;;;;5070917;28;19916;-81
2023/03/23 07:33:22;;;;;;;16.92;2.65;;;10.30;99.90;;;;;;5071071;28;20063;-81
2023/03/23 07:35:48;;;;;;;16.92;2.45;;;10.40;99.90;;;;;;5054332;28;20037;-82
2023/03/23 07:38:14;;;;;;;18.60;3.17;;;10.40;99.90;;;;;;5055026;28;20077;-81
2023/03/23 07:40:40;;;;;;;;;;;10.40;99.90;;;;;;5054521;28;20036;-81
2023/03/23 07:43:06;;;;;;;18.17;3.42;;;10.40;99.90;;;;;;5071254;28;19916;-81
2023/03/23 07:45:33;;;;;;;20.42;3.45;;;10.40;99.90;;;;;;5071051;28;20119;-82
2023/03/23 07:47:59;;;;;;;7.65;1.88;;;10.50;99.90;;;;;;5037775;28;20048;-82
2023/03/23 07:50:26;;;;;;;22.88;2.88;;;10.70;99.90;;;;;;5054183;28;20416;-82
2023/03/23 07:52:53;;;;;;;;;;;10.90;99.90;;;;;;5054616;28;20146;-82
2023/03/23 07:55:19;;;;;;;16.05;3.20;;;11.10;99.90;;;;;;5071087;28;20363;-82
2023/03/23 07:57:47;;;;;;;20.27;2.67;;;11.30;99.90;;;;;;5054449;28;20071;-82
2023/03/23 08:00:22;;;;;;;17.83;2.58;;;11.40;99.90;;;;;;5038524;28;20111;-82
2023/03/23 08:02:56;;;;;;;18.25;2.45;;;11.40;99.90;;;;;;5054474;28;20439;-82
2023/03/23 08:05:25;;;;;;;15.00;2.35;;;11.50;99.90;;;;;;5070862;28;20111;-82
2023/03/23 08:07:54;;;;;;;20.35;2.78;;;11.60;99.90;;;;;;5055097;28;20048;-81
2023/03/23 08:10:26;;;;;;;14.52;2.25;;;11.50;99.90;;;;;;5071441;28;20545;-82
2023/03/23 08:12:54;;;;;;;17.20;2.42;;;11.50;99.90;;;;;;5070992;28;20075;-82
2023/03/23 08:15:21;;;;;;;12.57;2.70;;;11.40;99.90;;;;;;5071024;28;20059;-83
2023/03/23 08:17:48;;;;;;;16.27;3.13;;;11.50;99.90;;;;;;5054378;28;20043;-82
2023/03/23 08:20:14;;;;;;;21.17;2.60;;;11.50;99.90;;;;;;5071194;28;20036;-82
2023/03/23 08:22:44;;;;;;;18.42;2.72;;;11.50;99.90;;;;;;5070495;28;20036;-82
2023/03/23 08:25:13;;;;;;;21.35;2.85;;;11.50;99.90;;;;;;5070994;28;20047;-82
2023/03/23 08:27:43;;;;;;;18.33;3.38;;;11.60;99.90;;;;;;5070772;28;20059;-82
2023/03/23 08:30:11;;;;;;;17.33;3.22;;;11.70;99.90;;;;;;5054893;28;20099;-83
2023/03/23 08:32:37;;;;;;;21.45;3.00;;;11.80;99.90;;;;;;5070580;28;20044;-83
2023/03/23 08:35:03;;;;;;;12.07;2.20;;;11.90;99.90;;;;;;5053955;28;20039;-83
2023/03/23 08:37:29;;;;;;;13.27;2.53;;;11.90;99.90;;;;;;5070222;28;20041;-83
2023/03/23 08:39:56;;;;;;;;;;;11.80;99.90;;;;;;5070329;28;20093;-83
2023/03/23 08:42:24;;;;;;;18.58;3.58;;;11.80;99.90;;;;;;5070591;28;19999;-83
2023/03/23 08:44:50;;;;;;;21.05;3.00;;;11.90;99.90;;;;;;5053550;28;20416;-83
2023/03/23 08:47:17;;;;;;;14.85;2.38;;;12.10;99.90;;;;;;5070784;28;20056;-82
2023/03/23 08:49:45;;;;;;;16.17;2.42;;;12.30;99.90;;;;;;5070729;28;20048;-82
2023/03/23 08:52:11;;;;;;;18.42;2.67;;;12.40;99.90;;;;;;5054530;28;20572;-82
2023/03/23 08:54:37;;;;;;;14.13;3.17;;;12.90;99.90;;;;;;5071108;28;20512;-82
2023/03/23 08:57:03;;;;;;;16.25;2.90;;;13.40;99.90;;;;;;5072080;28;20036;-83
2023/03/23 08:59:29;;;;;;;14.70;2.22;;;13.80;99.90;;;;;;5071664;28;20048;-82
2023/03/23 09:01:55;;;;;;;15.95;2.78;;;14.10;99.90;;;;;;5056409;28;20162;-82
2023/03/23 09:04:21;;;;;;;17.77;3.58;;;14.00;99.90;;;;;;5038276;28;20064;-83
2023/03/23 09:06:47;;;;;;;14.13;2.95;;;14.00;99.90;;;;;;5072010;28;20048;-83
2023/03/23 09:09:13;;;;;;;13.25;3.00;;;13.80;99.90;;;;;;5054407;28;20033;-82
2023/03/23 09:11:39;;;;;;;16.40;2.92;;;13.90;99.90;;;;;;5071000;28;20052;-83
2023/03/23 09:14:07;;;;;;;14.60;3.78;;;14.10;99.90;;;;;;5037948;28;20068;-83
2023/03/23 09:16:34;;;;;;;14.50;3.85;;;14.50;99.90;;;;;;5072055;28;20041;-83
2023/03/23 09:19:00;;;;;;;15.88;2.67;;;14.40;99.90;;;;;;5052589;28;20033;-83
2023/03/23 09:21:27;;;;;;;20.13;3.08;;;14.20;99.90;;;;;;5069251;28;20036;-83
2023/03/23 09:23:53;;;;;;;18.15;3.85;;;14.10;99.90;;;;;;5069301;28;20044;-83
2023/03/23 09:26:19;;;;;;;15.90;3.05;;;14.20;99.90;;;;;;5070068;28;20037;-83
2023/03/23 09:28:45;;;;;;;18.92;2.40;;;14.30;99.90;;;;;;5069697;28;20071;-83
2023/03/23 09:31:12;;;;;;;15.57;2.50;;;14.30;99.90;;;;;;5053542;28;20060;-84
2023/03/23 09:33:38;;;;;;;;;;;14.20;99.90;;;;;;5070028;28;20041;-83
2023/03/23 09:36:04;;;;;;;19.38;2.78;;;14.10;99.90;;;;;;5064532;28;20017;-83
2023/03/23 09:38:35;;;;;;;17.20;3.78;;;14.60;99.90;;;;;;5053296;28;20127;-83
2023/03/23 09:41:28;;;;;;;16.23;2.58;;;15.20;99.90;;;;;;5069067;28;20040;-83
2023/03/23 09:44:03;;;;;;;12.85;2.60;;;16.00;99.90;;;;;;5068487;28;20041;-83
2023/03/23 09:46:49;;;;;;;17.40;2.88;;;16.40;99.90;;;;;;5050837;28;20125;-82
2023/03/23 09:49:58;;;;;;;14.02;2.22;;;16.60;99.90;;;;;;5066847;28;20045;-83
2023/03/23 09:52:47;;;;;;;15.88;2.80;;;17.00;99.90;;;;;;5047407;28;20044;-83
2023/03/23 09:55:16;;;;;;;18.48;2.78;;;17.50;99.90;;;;;;5073213;28;20036;-83
2023/03/23 09:57:59;;;;;;;10.77;2.10;;;17.40;99.90;;;;;;5072958;28;20037;-83
2023/03/23 10:00:41;;;;;;;8.57;2.08;;;17.50;99.90;;;;;;5068760;28;20036;-83
2023/03/23 10:03:24;;;;;;;18.10;2.90;;;17.50;99.90;;;;;;5054622;28;20082;-83
2023/03/23 10:05:53;;;;;;;16.13;2.97;;;17.90;99.90;;;;;;5055110;28;20072;-83
2023/03/23 10:08:30;;;;;;;16.08;3.08;;;18.10;99.90;;;;;;5073097;28;20032;-83
2023/03/23 10:11:07;;;;;;;14.40;2.97;;;18.30;99.90;;;;;;5072577;28;20158;-84
2023/03/23 10:13:51;;;;;;;11.77;2.92;;;18.40;99.90;;;;;;5071910;28;20057;-84
2023/03/23 10:16:29;;;;;;;17.08;2.50;;;18.70;99.90;;;;;;5073098;28;20037;-83
2023/03/23 10:18:58;;;;;;;12.88;2.30;;;18.80;99.90;;;;;;5072314;28;20120;-83
2023/03/23 10:21:26;;;;;;;10.18;2.72;;;18.90;99.90;;;;;;5070420;28;20044;-83
2023/03/23 10:23:58;;;;;;;12.32;2.55;;;19.00;99.90;;;;;;5055816;28;20079;-84
2023/03/23 10:26:40;;;;;;;15.35;2.53;;;18.70;99.90;;;;;;5053788;28;20527;-83
2023/03/23 10:29:10;;;;;;;13.88;2.88;;;18.40;99.90;;;;;;5087665;28;20036;-83
2023/03/23 10:31:43;;;;;;;12.80;2.47;;;18.40;99.90;;;;;;5072027;28;20044;-83
2023/03/23 10:34:24;;;;;;;11.57;2.08;;;18.20;99.90;;;;;;5054264;28;20752;-84
2023/03/23 10:37:11;;;;;;;13.23;2.28;;;18.10;99.90;;;;;;5072140;28;20484;-84
2023/03/23 10:39:49;;;;;;;12.13;2.35;;;18.00;99.90;;;;;;5055184;28;20129;-84
2023/03/23 10:42:25;;;;;;;12.60;2.83;;;18.20;99.90;;;;;;5072103;28;20032;-83
2023/03/23 10:44:52;;;;;;;10.63;2.35;;;18.60;99.90;;;;;;5054234;28;20043;-84
2023/03/23 10:47:18;;;;;;;10.80;2.20;;;18.90;99.90;;;;;;5071795;28;20052;-83
2023/03/23 10:50:05;;;;;;;9.00;2.38;;;19.20;99.90;;;;;;5055629;28;20040;-84
2023/03/23 10:52:42;;;;;;;16.27;2.35;;;19.10;99.90;;;;;;5048791;28;20075;-83
2023/03/23 10:55:18;;;;;;;;;;;19.40;99.90;;;;;;5067590;28;20063;-85
2023/03/23 10:57:47;;;;;;;13.30;2.50;;;19.50;99.90;;;;;;5071804;28;19962;-84
2023/03/23 11:00:27;;;;;;;18.75;2.97;;;19.40;99.90;;;;;;5054869;28;20047;-83
2023/03/23 11:03:28;;;;;;;13.95;2.33;;;18.90;99.90;;;;;;5069301;28;20040;-83
2023/03/23 11:05:58;;;;;;;14.15;2.08;;;18.40;99.90;;;;;;5060102;28;20120;-83
2023/03/23 11:08:30;;;;;;;13.48;1.95;;;18.30;99.90;;;;;;5071655;28;20112;-83
2023/03/23 11:10:59;;;;;;;11.77;1.90;;;18.10;99.90;;;;;;5071234;28;20108;-84
2023/03/23 11:13:31;;;;;;;12.18;2.00;;;18.30;99.90;;;;;;5068959;28;20044;-84
2023/03/23 11:15:58;;;;;;;8.07;1.60;;;18.90;99.90;;;;;;5071164;28;20068;-84
2023/03/23 11:18:36;;;;;;;8.43;2.10;;;19.10;99.90;;;;;;5071049;28;20047;-83
2023/03/23 11:21:04;;;;;;;8.57;1.92;;;19.20;99.90;;;;;;5054325;28;20079;-84
2023/03/23 11:23:39;;;;;;;9.13;1.23;;;19.80;99.90;;;;;;5071102;28;20036;-84
2023/03/23 11:26:21;;;;;;;10.10;1.63;;;20.20;99.90;;;;;;5070699;28;20039;-84
2023/03/23 11:29:05;;;;;;;9.40;1.75;;;20.30;99.90;;;;;;5052057;28;20094;-84
2023/03/23 11:31:48;;;;;;;10.88;2.00;;;20.40;99.90;;;;;;5071048;28;20048;-84
2023/03/23 11:34:23;;;;;;;10.05;2.30;;;20.20;99.90;;;;;;5070077;28;20408;-84
2023/03/23 11:36:58;;;;;;;13.43;1.83;;;20.30;99.90;;;;;;5052464;28;20068;-84
2023/03/23 11:39:28;;;;;;;11.15;1.80;;;20.20;99.90;;;;;;5066493;28;20029;-84
2023/03/23 11:41:58;;;;;;;9.38;1.85;;;19.90;99.90;;;;;;5070469;28;20067;-85
2023/03/23 11:44:33;;;;;;;9.63;1.60;;;19.80;99.90;;;;;;5054091;28;20082;-84
2023/03/23 11:47:14;;;;;;;8.20;1.95;;;19.90;99.90;;;;;;5070625;28;20587;-83
2023/03/23 11:49:55;;;;;;;10.80;1.95;;;20.20;99.90;;;;;;5069781;28;20044;-85
2023/03/23 11:52:30;;;;;;;12.68;1.73;;;20.30;99.90;;;;;;5069905;28;20124;-85
2023/03/23 11:55:05;;;;;;;9.48;1.63;;;20.00;99.90;;;;;;5052310;28;20032;-84
2023/03/23 11:57:30;;;;;;;9.15;1.25;;;19.50;99.90;;;;;;5068552;28;20040;-85
2023/03/23 12:00:00;;;;;;;10.30;2.10;;;19.30;99.90;;;;;;5054020;28;20116;-84
2023/03/23 12:02:57;;;;;;;8.23;1.80;;;19.20;99.90;;;;;;5070391;28;20123;-84
2023/03/23 12:05:38;;;;;;;9.95;1.38;;;19.20;99.90;;;;;;5070461;28;20044;-85
2023/03/23 12:08:26;;;;;;;11.02;2.08;;;19.00;99.90;;;;;;5070051;28;20040;-85
2023/03/23 12:11:09;;;;;;;10.73;2.17;;;18.30;99.90;;;;;;5070619;28;20039;-85
2023/03/23 12:13:46;;;;;;;9.18;1.60;;;18.20;99.90;;;;;;5068680;28;20158;-85
2023/03/23 12:16:33;;;;;;;9.32;1.33;;;18.60;99.90;;;;;;5068303;28;20032;-85
2023/03/23 12:19:05;;;;;;;;;;;19.40;99.90;;;;;;5070512;28;20174;-85
2023/03/23 12:21:59;;;;;;;6.07;1.25;;;19.90;99.90;;;;;;5063452;28;20042;-84
2023/03/23 12:24:40;;;;;;;10.55;1.50;;;20.40;99.90;;;;;;5068501;28;20573;-85
2023/03/23 12:27:40;;;;;;;9.15;1.60;;;20.80;99.90;;;;;;5067897;28;20404;-84
2023/03/23 12:30:17;;;;;;;8.93;1.60;;;20.70;99.60;;;;;;5051709;28;20500;-85
2023/03/23 12:33:02;;;;;;;9.20;1.65;;;20.50;99.90;;;;;;5068335;28;20485;-85
2023/03/23 12:35:55;;;;;;;7.85;1.67;;;20.60;99.90;;;;;;5066344;28;20124;-84
2023/03/23 12:39:03;;;;;;;7.50;1.40;;;20.50;99.90;;;;;;5070066;28;20401;-85
2023/03/23 12:42:08;;;;;;;9.43;1.63;;;20.00;99.90;;;;;;5052683;28;20036;-85
2023/03/23 12:44:48;;;;;;;9.73;1.98;;;19.90;99.90;;;;;;5069762;28;20043;-85
2023/03/23 12:47:36;;;;;;;8.30;1.75;;;19.30;99.90;;;;;;5060609;28;20052;-85
2023/03/23 12:50:16;;;;;;;6.57;1.35;;;18.70;99.90;;;;;;5069154;28;20055;-85
2023/03/23 12:52:50;;;;;;;8.80;1.65;;;18.30;99.90;;;;;;5049911;28;20040;-85
2023/03/23 12:55:44;;;;;;;8.45;1.10;;;18.10;99.90;;;;;;5053287;28;20484;-85
2023/03/23 12:58:14;;;;;;;7.03;1.30;;;18.50;99.90;;;;;;5069819;28;20044;-85
2023/03/23 13:01:02;;;;;;;12.63;1.80;;;18.90;99.90;;;;;;5070151;28;20447;-85
2023/03/23 13:03:46;;;;;;;7.55;1.08;;;18.70;99.90;;;;;;5053632;28;20068;-85
2023/03/23 13:06:23;;;;;;;7.32;1.20;;;18.80;99.90;;;;;;5102583;28;20037;-85